createdAt,value
2019-03-03T00:01:39.857Z,51.84
2019-03-03T00:04:12.406Z,51.95
2019-03-03T00:06:42.452Z,52.49
2019-03-03T00:09:12.810Z,54.54
2019-03-03T00:11:48.337Z,56.73
2019-03-03T00:14:18.290Z,56.88
2019-03-03T00:16:48.292Z,55.66
2019-03-03T00:19:18.499Z,53.89
2019-03-03T00:21:48.688Z,53.54
2019-03-03T00:24:18.694Z,53.12
2019-03-03T00:26:48.578Z,51.60
2019-03-03T00:29:18.777Z,50.66
2019-03-03T00:31:48.977Z,50.13
2019-03-03T00:34:19.348Z,49.43
2019-03-03T00:37:10.044Z,49.45
2019-03-03T00:40:05.665Z,49.50
2019-03-03T00:42:46.802Z,50.22
2019-03-03T00:45:34.476Z,51.54
2019-03-03T00:48:17.557Z,51.20
2019-03-03T00:50:55.041Z,52.05
2019-03-03T00:53:53.114Z,50.01
2019-03-03T00:56:31.728Z,47.46
2019-03-03T00:59:14.337Z,46.98
2019-03-03T01:01:49.279Z,45.66
2019-03-03T01:04:41.330Z,45.86
2019-03-03T01:07:19.013Z,47.20
2019-03-03T01:09:56.202Z,46.04
2019-03-03T01:12:38.394Z,45.06
2019-03-03T01:15:31.671Z,45.47
2019-03-03T01:18:23.793Z,44.79
2019-03-03T01:21:00.971Z,46.43
2019-03-03T01:23:52.786Z,44.74
2019-03-03T01:26:23.003Z,43.22
2019-03-03T01:28:53.161Z,42.59
2019-03-03T01:31:23.234Z,43.07
2019-03-03T01:33:53.572Z,42.80
2019-03-03T01:36:24.170Z,45.02
2019-03-03T01:38:54.168Z,42.50
2019-03-03T01:41:24.160Z,41.86
2019-03-03T01:43:54.403Z,42.14
2019-03-03T01:46:24.616Z,41.51
2019-03-03T01:48:54.633Z,42.84
2019-03-03T01:51:24.650Z,42.26
2019-03-03T01:53:54.858Z,42.43
2019-03-03T01:56:25.047Z,42.78
2019-03-03T01:58:55.047Z,41.94
2019-03-03T02:01:25.465Z,41.92
2019-03-03T02:03:55.479Z,43.08
2019-03-03T02:06:25.621Z,44.14
2019-03-03T02:08:55.793Z,44.05
2019-03-03T02:11:26.093Z,42.92
2019-03-03T02:13:56.091Z,42.09
2019-03-03T02:16:26.023Z,42.79
2019-03-03T02:18:56.236Z,43.91
2019-03-03T02:21:26.529Z,43.62
2019-03-03T02:23:56.558Z,44.09
2019-03-03T02:26:26.660Z,43.16
2019-03-03T02:28:56.968Z,42.53
2019-03-03T02:31:27.192Z,43.90
2019-03-03T02:33:57.366Z,44.05
2019-03-03T02:36:27.512Z,44.47
2019-03-03T02:38:57.725Z,44.94
2019-03-03T02:41:27.860Z,44.84
2019-03-03T02:43:58.063Z,43.60
2019-03-03T02:46:28.290Z,43.00
2019-03-03T02:48:58.315Z,42.91
2019-03-03T02:51:28.332Z,42.52
2019-03-03T02:53:58.577Z,42.33
2019-03-03T02:56:28.792Z,42.27
2019-03-03T02:58:58.924Z,42.54
2019-03-03T03:01:33.151Z,42.33
2019-03-03T03:04:03.485Z,42.37
2019-03-03T03:06:58.444Z,42.45
2019-03-03T03:09:50.289Z,42.53
2019-03-03T03:12:28.711Z,42.29
2019-03-03T03:15:15.120Z,42.27
2019-03-03T03:18:16.289Z,42.14
2019-03-03T03:21:03.620Z,43.38
2019-03-03T03:23:58.492Z,44.72
2019-03-03T03:26:50.239Z,43.78
2019-03-03T03:29:44.867Z,43.72
2019-03-03T03:32:26.418Z,42.94
2019-03-03T03:35:19.128Z,43.04
2019-03-03T03:38:04.214Z,43.19
2019-03-03T03:40:56.287Z,43.32
2019-03-03T03:44:03.772Z,43.42
2019-03-03T03:46:52.814Z,45.20
2019-03-03T03:49:33.325Z,44.48
2019-03-03T03:52:29.023Z,44.99
2019-03-03T03:55:15.637Z,45.45
2019-03-03T03:58:02.231Z,46.21
2019-03-03T04:01:03.384Z,45.45
2019-03-03T04:03:51.001Z,44.32
2019-03-03T04:06:29.094Z,45.29
2019-03-03T04:09:30.455Z,47.77
2019-03-03T04:12:19.502Z,47.76
2019-03-03T04:15:17.571Z,47.80
2019-03-03T04:18:03.752Z,48.59
2019-03-03T04:21:04.823Z,49.55
2019-03-03T04:23:53.899Z,50.62
2019-03-03T04:26:32.931Z,49.14
2019-03-03T04:29:25.174Z,48.06
2019-03-03T04:32:17.008Z,47.00
2019-03-03T04:35:14.164Z,46.51
2019-03-03T04:38:15.343Z,46.64
2019-03-03T04:41:03.278Z,48.61
2019-03-03T04:43:51.242Z,49.53
2019-03-03T04:46:46.095Z,51.05
2019-03-03T04:49:44.145Z,52.00
2019-03-03T04:52:22.546Z,52.25
2019-03-03T04:55:20.527Z,52.34
2019-03-03T04:58:00.283Z,52.63
2019-03-03T05:00:56.602Z,52.17
2019-03-03T05:03:50.582Z,53.01
2019-03-03T05:06:30.427Z,53.17
2019-03-03T05:09:15.073Z,51.98
2019-03-03T05:12:26.993Z,52.27
2019-03-03T05:15:01.984Z,52.00
2019-03-03T05:17:54.059Z,51.76
2019-03-03T05:20:24.386Z,52.46
2019-03-03T05:22:54.615Z,49.23
2019-03-03T05:25:24.695Z,48.19
2019-03-03T05:27:54.716Z,47.39
2019-03-03T05:30:24.969Z,47.47
2019-03-03T05:32:55.226Z,48.15
2019-03-03T05:35:25.282Z,47.46
2019-03-03T05:37:55.607Z,48.04
2019-03-03T05:40:26.034Z,49.24
2019-03-03T05:42:55.933Z,48.97
2019-03-03T05:45:26.239Z,47.98
2019-03-03T05:47:56.449Z,47.81
2019-03-03T05:50:26.349Z,47.33
2019-03-03T05:52:56.265Z,46.86
2019-03-03T05:55:26.486Z,46.55
2019-03-03T05:57:56.694Z,47.70
2019-03-03T06:00:26.812Z,47.70
2019-03-03T06:02:56.819Z,45.88
2019-03-03T06:05:27.010Z,45.77
2019-03-03T06:07:57.221Z,45.05
2019-03-03T06:10:27.120Z,47.81
2019-03-03T06:12:57.228Z,44.36
2019-03-03T06:15:27.543Z,43.59
2019-03-03T06:17:57.521Z,43.62
2019-03-03T06:20:27.927Z,51.20
2019-03-03T06:22:58.147Z,43.80
2019-03-03T06:25:28.268Z,39.15
2019-03-03T06:27:58.386Z,38.43
2019-03-03T06:30:28.599Z,37.01
2019-03-03T06:32:58.834Z,36.87
2019-03-03T06:35:28.844Z,36.62
2019-03-03T06:37:58.852Z,35.08
2019-03-03T06:40:29.073Z,34.79
2019-03-03T06:42:59.329Z,35.63
2019-03-03T06:45:29.485Z,36.16
2019-03-03T06:47:59.415Z,36.74
2019-03-03T06:50:29.673Z,37.28
2019-03-03T06:52:59.959Z,37.83
2019-03-03T06:55:29.917Z,37.28
2019-03-03T06:58:00.114Z,37.00
2019-03-03T07:00:30.150Z,36.11
2019-03-03T07:03:00.343Z,35.33
2019-03-03T07:05:30.593Z,34.87
2019-03-03T07:08:00.886Z,33.84
2019-03-03T07:10:31.063Z,33.12
2019-03-03T07:13:01.125Z,33.66
2019-03-03T07:15:37.401Z,33.85
2019-03-03T07:18:17.643Z,33.92
2019-03-03T07:21:09.773Z,33.08
2019-03-03T07:23:39.857Z,33.42
2019-03-03T07:26:10.119Z,32.59
2019-03-03T07:28:40.359Z,33.44
2019-03-03T07:31:10.510Z,32.27
2019-03-03T07:33:43.898Z,32.80
2019-03-03T07:36:14.325Z,31.71
2019-03-03T07:38:44.474Z,30.31
2019-03-03T07:41:15.015Z,29.16
2019-03-03T07:43:45.256Z,29.45
2019-03-03T07:46:15.485Z,28.73
2019-03-03T07:48:45.618Z,28.28
2019-03-03T07:51:15.834Z,27.19
2019-03-03T07:53:46.049Z,26.66
2019-03-03T07:56:15.950Z,26.02
2019-03-03T07:58:47.864Z,26.22
2019-03-03T08:01:18.054Z,26.09
2019-03-03T08:03:48.269Z,24.75
2019-03-03T08:06:18.287Z,23.85
2019-03-03T08:08:48.268Z,24.59
2019-03-03T08:11:18.473Z,25.70
2019-03-03T08:13:48.656Z,25.05
2019-03-03T08:16:18.652Z,25.14
2019-03-03T08:18:48.972Z,23.85
2019-03-03T08:21:18.890Z,23.88
2019-03-03T08:23:48.801Z,23.20
2019-03-03T08:26:19.037Z,21.97
2019-03-03T08:28:49.303Z,23.53
2019-03-03T08:31:19.345Z,23.90
2019-03-03T08:33:49.261Z,23.10
2019-03-03T08:36:19.478Z,22.83
2019-03-03T08:38:50.177Z,23.10
2019-03-03T08:41:20.188Z,22.77
2019-03-03T08:44:06.997Z,23.55
2019-03-03T08:47:14.573Z,23.64
2019-03-03T08:50:03.617Z,22.44
2019-03-03T08:52:42.758Z,20.52
2019-03-03T08:55:30.999Z,20.48
2019-03-03T08:58:21.240Z,20.80
2019-03-03T09:00:56.131Z,19.77
2019-03-03T09:03:47.970Z,20.28
2019-03-03T09:06:40.121Z,19.69
2019-03-03T09:09:35.422Z,18.94
2019-03-03T09:12:10.165Z,19.41
2019-03-03T09:15:01.143Z,18.42
2019-03-03T09:17:49.807Z,17.83
2019-03-03T09:20:44.890Z,17.37
2019-03-03T09:23:25.871Z,17.59
2019-03-03T09:26:24.263Z,18.70
2019-03-03T09:29:04.514Z,17.82
2019-03-03T09:31:52.356Z,18.27
2019-03-03T09:34:59.353Z,18.80
2019-03-03T09:37:49.157Z,21.54
2019-03-03T09:40:37.002Z,20.39
2019-03-03T09:43:16.055Z,21.91
2019-03-03T09:46:03.705Z,22.57
2019-03-03T09:48:51.450Z,22.77
2019-03-03T09:51:46.556Z,21.43
2019-03-03T09:54:31.256Z,22.75
2019-03-03T09:57:11.446Z,24.62
2019-03-03T09:59:55.046Z,24.87
2019-03-03T10:02:49.686Z,24.99
2019-03-03T10:05:28.619Z,24.72
2019-03-03T10:08:17.854Z,25.57
2019-03-03T10:11:09.865Z,25.18
2019-03-03T10:14:03.990Z,24.62
2019-03-03T10:16:40.453Z,24.24
2019-03-03T10:19:25.719Z,24.28
2019-03-03T10:22:14.705Z,24.65
2019-03-03T10:24:57.768Z,24.09
2019-03-03T10:27:45.775Z,24.49
2019-03-03T10:30:46.913Z,25.27
2019-03-03T10:33:48.147Z,23.84
2019-03-03T10:36:42.968Z,23.04
2019-03-03T10:39:31.297Z,23.51
2019-03-03T10:42:27.957Z,23.62
2019-03-03T10:45:29.232Z,23.02
2019-03-03T10:48:07.499Z,24.41
2019-03-03T10:50:55.119Z,23.68
2019-03-03T10:53:52.996Z,24.61
2019-03-03T10:56:34.378Z,24.12
2019-03-03T10:59:13.519Z,24.88
2019-03-03T11:01:56.458Z,25.67
2019-03-03T11:04:44.156Z,24.91
2019-03-03T11:07:39.102Z,25.88
2019-03-03T11:10:28.909Z,25.49
2019-03-03T11:13:17.993Z,25.76
2019-03-03T11:16:09.800Z,24.86
2019-03-03T11:18:57.937Z,23.35
2019-03-03T11:21:50.073Z,23.14
2019-03-03T11:24:37.460Z,23.57
2019-03-03T11:27:20.358Z,23.60
2019-03-03T11:30:04.791Z,24.00
2019-03-03T11:32:54.900Z,22.87
2019-03-03T11:35:46.811Z,22.29
2019-03-03T11:38:35.748Z,22.62
2019-03-03T11:41:32.251Z,20.45
2019-03-03T11:44:27.713Z,18.56
2019-03-03T11:47:08.073Z,18.81
2019-03-03T11:49:53.453Z,18.02
2019-03-03T11:52:31.573Z,17.47
2019-03-03T11:55:13.135Z,19.08
2019-03-03T11:57:52.957Z,17.85
2019-03-03T12:00:36.837Z,17.59
2019-03-03T12:03:34.804Z,18.15
2019-03-03T12:06:29.774Z,17.54
2019-03-03T12:09:21.591Z,16.70
2019-03-03T12:12:10.609Z,18.03
2019-03-03T12:15:14.558Z,18.22
2019-03-03T12:17:55.887Z,19.85
2019-03-03T12:20:33.891Z,18.59
2019-03-03T12:23:25.400Z,19.06
2019-03-03T12:26:20.157Z,19.57
2019-03-03T12:29:14.292Z,20.10
2019-03-03T12:32:15.713Z,21.46
2019-03-03T12:34:52.315Z,21.30
2019-03-03T12:37:36.966Z,22.77
2019-03-03T12:40:37.360Z,22.59
2019-03-03T12:43:16.939Z,22.05
2019-03-03T12:46:05.875Z,22.73
2019-03-03T12:48:54.840Z,23.51
2019-03-03T12:51:56.021Z,22.81
2019-03-03T12:54:39.948Z,22.06
2019-03-03T12:57:27.410Z,21.54
2019-03-03T13:00:22.449Z,21.60
2019-03-03T13:03:14.326Z,24.10
2019-03-03T13:06:09.284Z,20.22
2019-03-03T13:09:13.212Z,20.36
2019-03-03T13:11:51.431Z,20.28
2019-03-03T13:14:32.310Z,21.89
2019-03-03T13:17:27.822Z,22.38
2019-03-03T13:20:12.573Z,23.18
2019-03-03T13:22:54.168Z,24.02
2019-03-03T13:25:36.469Z,23.60
2019-03-03T13:28:21.607Z,22.99
2019-03-03T13:31:10.617Z,23.25
2019-03-03T13:33:58.386Z,22.17
2019-03-03T13:36:50.123Z,24.67
2019-03-03T13:39:57.642Z,24.75
2019-03-03T13:42:43.709Z,24.27
2019-03-03T13:45:15.234Z,24.40
2019-03-03T13:47:45.249Z,24.39
2019-03-03T13:50:17.161Z,23.02
2019-03-03T13:52:47.347Z,25.45
2019-03-03T13:55:17.587Z,24.40
2019-03-03T13:57:47.692Z,24.32
2019-03-03T14:00:21.182Z,26.11
2019-03-03T14:02:51.955Z,26.43
2019-03-03T14:05:23.829Z,26.07
2019-03-03T14:07:53.948Z,26.92
2019-03-03T14:10:24.160Z,27.06
2019-03-03T14:12:54.175Z,27.73
2019-03-03T14:15:24.380Z,30.18
2019-03-03T14:17:54.576Z,28.67
2019-03-03T14:20:25.235Z,28.57
2019-03-03T14:22:55.887Z,28.34
2019-03-03T14:25:26.194Z,28.64
2019-03-03T14:27:56.545Z,29.98
2019-03-03T14:30:27.326Z,30.25
2019-03-03T14:32:57.484Z,29.98
2019-03-03T14:35:28.879Z,30.07
2019-03-03T14:37:59.150Z,30.33
2019-03-03T14:40:29.529Z,35.04
2019-03-03T14:42:59.803Z,29.61
2019-03-03T14:45:30.415Z,29.07
2019-03-03T14:48:00.631Z,29.20
2019-03-03T14:50:30.766Z,33.10
2019-03-03T14:53:00.980Z,30.92
2019-03-03T14:55:31.185Z,26.03
2019-03-03T14:58:01.325Z,27.88
2019-03-03T15:00:34.201Z,32.36
2019-03-03T15:03:06.403Z,24.85
2019-03-03T15:05:36.833Z,27.99
2019-03-03T15:08:06.967Z,35.73
2019-03-03T15:10:37.205Z,26.07
2019-03-03T15:13:07.415Z,31.58
2019-03-03T15:15:37.652Z,32.95
2019-03-03T15:18:07.778Z,37.26
2019-03-03T15:20:37.998Z,26.84
2019-03-03T15:23:08.303Z,26.72
2019-03-03T15:25:38.428Z,36.77
2019-03-03T15:28:08.571Z,25.96
2019-03-03T15:30:38.779Z,28.65
2019-03-03T15:33:09.139Z,26.84
2019-03-03T15:35:39.397Z,30.72
2019-03-03T15:38:09.620Z,26.82
2019-03-03T15:40:39.746Z,27.17
2019-03-03T15:43:10.088Z,26.25
2019-03-03T15:45:40.442Z,26.84
2019-03-03T15:48:10.869Z,26.54
2019-03-03T15:50:41.239Z,26.87
2019-03-03T15:53:11.258Z,27.32
2019-03-03T15:55:41.480Z,27.33
2019-03-03T15:58:11.698Z,27.39
2019-03-03T16:00:41.997Z,29.67
2019-03-03T16:03:12.220Z,27.43
2019-03-03T16:05:42.472Z,26.93
2019-03-03T16:08:12.700Z,27.13
2019-03-03T16:10:42.727Z,27.10
2019-03-03T16:13:12.903Z,26.67
2019-03-03T16:15:43.165Z,27.44
2019-03-03T16:18:13.379Z,27.00
2019-03-03T16:20:43.808Z,27.36
2019-03-03T16:23:14.092Z,27.07
2019-03-03T16:25:44.384Z,27.28
2019-03-03T16:28:14.614Z,26.80
2019-03-03T16:30:47.832Z,27.86
2019-03-03T16:33:20.869Z,26.82
2019-03-03T16:35:49.868Z,27.58
2019-03-03T16:38:25.643Z,26.96
2019-03-03T16:40:55.823Z,26.85
2019-03-03T16:43:26.020Z,26.92
2019-03-03T16:45:56.291Z,26.82
2019-03-03T16:48:27.196Z,27.25
2019-03-03T16:50:57.267Z,27.27
2019-03-03T16:53:27.514Z,27.15
2019-03-03T16:55:57.672Z,26.93
2019-03-03T16:58:27.743Z,26.98
2019-03-03T17:00:58.000Z,26.57
2019-03-03T17:03:28.234Z,27.48
2019-03-03T17:05:58.418Z,27.76
2019-03-03T17:08:28.646Z,27.88
2019-03-03T17:10:58.943Z,27.92
2019-03-03T17:13:29.163Z,28.53
2019-03-03T17:15:59.216Z,28.22
2019-03-03T17:18:30.605Z,27.92
2019-03-03T17:21:03.869Z,27.79
2019-03-03T17:23:34.176Z,27.75
2019-03-03T17:26:04.371Z,28.35
2019-03-03T17:28:34.504Z,28.52
2019-03-03T17:31:04.699Z,29.00
2019-03-03T17:33:34.907Z,28.62
2019-03-03T17:36:05.182Z,34.68
2019-03-03T17:38:35.384Z,35.06
2019-03-03T17:41:05.540Z,35.96
2019-03-03T17:43:38.771Z,39.85
2019-03-03T17:46:09.183Z,43.13
2019-03-03T17:48:39.407Z,40.69
2019-03-03T17:51:09.675Z,43.06
2019-03-03T17:53:39.825Z,44.10
2019-03-03T17:56:10.177Z,42.13
2019-03-03T17:58:40.374Z,42.63
2019-03-03T18:01:10.465Z,42.41
2019-03-03T18:03:40.686Z,42.45
2019-03-03T18:06:10.914Z,43.54
2019-03-03T18:08:41.142Z,43.82
2019-03-03T18:11:11.286Z,45.08
2019-03-03T18:13:41.471Z,45.08
2019-03-03T18:16:11.593Z,43.05
2019-03-03T18:18:41.729Z,37.72
2019-03-03T18:21:11.956Z,36.97
2019-03-03T18:23:42.183Z,36.96
2019-03-03T18:26:12.290Z,37.02
2019-03-03T18:28:42.331Z,37.29
2019-03-03T18:31:12.539Z,36.66
2019-03-03T18:33:42.828Z,36.35
2019-03-03T18:36:14.550Z,35.59
2019-03-03T18:38:44.517Z,35.79
2019-03-03T18:41:14.719Z,37.03
2019-03-03T18:43:45.170Z,38.20
2019-03-03T18:46:15.407Z,37.14
2019-03-03T18:48:45.546Z,36.70
2019-03-03T18:51:15.952Z,36.28
2019-03-03T18:53:46.000Z,37.37
2019-03-03T18:56:16.218Z,38.17
2019-03-03T18:58:46.498Z,38.60
2019-03-03T19:01:16.665Z,38.26
2019-03-03T19:03:46.784Z,38.13
2019-03-03T19:06:17.007Z,37.45
2019-03-03T19:08:47.261Z,39.03
2019-03-03T19:11:17.275Z,38.44
2019-03-03T19:13:47.300Z,38.39
2019-03-03T19:16:17.510Z,39.09
2019-03-03T19:18:47.726Z,39.52
2019-03-03T19:21:17.847Z,39.39
2019-03-03T19:23:47.965Z,40.66
2019-03-03T19:26:19.030Z,41.79
2019-03-03T19:28:49.474Z,42.51
2019-03-03T19:31:20.975Z,43.05
2019-03-03T19:33:53.953Z,40.98
2019-03-03T19:36:24.088Z,40.56
2019-03-03T19:38:54.105Z,42.43
2019-03-03T19:41:46.353Z,42.78
2019-03-03T19:44:16.848Z,43.77
2019-03-03T19:46:47.222Z,42.54
2019-03-03T19:49:17.357Z,40.64
2019-03-03T19:51:47.586Z,41.29
2019-03-03T19:54:17.825Z,41.12
2019-03-03T19:56:47.829Z,42.07
2019-03-03T19:59:17.961Z,41.17
2019-03-03T20:01:48.166Z,41.34
2019-03-03T20:04:18.377Z,40.76
2019-03-03T20:06:48.416Z,40.69
2019-03-03T20:09:19.724Z,40.15
2019-03-03T20:11:49.946Z,40.00
2019-03-03T20:14:20.173Z,40.43
2019-03-03T20:16:50.477Z,40.29
2019-03-03T20:19:20.715Z,40.07
2019-03-03T20:21:50.809Z,40.22
2019-03-03T20:24:21.106Z,40.22
2019-03-03T20:26:51.326Z,40.44
2019-03-03T20:29:21.548Z,40.75
2019-03-03T20:31:52.111Z,41.33
2019-03-03T20:34:22.249Z,40.72
2019-03-03T20:36:52.475Z,41.41
2019-03-03T20:39:22.761Z,41.03
2019-03-03T20:41:52.838Z,41.06
2019-03-03T20:44:22.924Z,41.14
2019-03-03T20:46:53.414Z,41.56
2019-03-03T20:49:23.676Z,41.47
2019-03-03T20:51:53.593Z,41.53
2019-03-03T20:54:23.830Z,41.69
2019-03-03T20:56:53.847Z,42.06
2019-03-03T20:59:24.409Z,42.19
2019-03-03T21:01:54.638Z,42.20
2019-03-03T21:04:24.901Z,41.55
2019-03-03T21:06:55.287Z,41.93
2019-03-03T21:09:26.168Z,42.07
2019-03-03T21:11:56.379Z,42.12
2019-03-03T21:14:26.652Z,42.31
2019-03-03T21:16:56.673Z,42.45
2019-03-03T21:19:26.732Z,41.93
2019-03-03T21:21:56.952Z,42.17
2019-03-03T21:24:27.241Z,42.40
2019-03-03T21:26:57.299Z,42.62
2019-03-03T21:29:27.316Z,42.19
2019-03-03T21:31:57.524Z,42.35
2019-03-03T21:34:27.721Z,42.41
2019-03-03T21:36:57.630Z,42.55
2019-03-03T21:39:27.666Z,42.68
2019-03-03T21:41:58.791Z,42.88
2019-03-03T21:44:29.366Z,43.35
2019-03-03T21:46:59.858Z,43.95
2019-03-03T21:49:30.253Z,45.17
2019-03-03T21:52:00.608Z,43.82
2019-03-03T21:54:30.887Z,43.84
2019-03-03T21:57:00.902Z,44.66
2019-03-03T21:59:31.542Z,45.13
2019-03-03T22:02:01.746Z,43.86
2019-03-03T22:04:31.955Z,44.36
2019-03-03T22:07:01.861Z,45.28
2019-03-03T22:09:31.785Z,44.46
2019-03-03T22:12:01.981Z,43.95
2019-03-03T22:14:32.025Z,43.43
2019-03-03T22:17:02.342Z,43.33
2019-03-03T22:19:32.542Z,43.57
2019-03-03T22:22:03.073Z,43.31
2019-03-03T22:24:33.302Z,44.19
2019-03-03T22:27:03.514Z,44.19
2019-03-03T22:29:33.704Z,44.26
2019-03-03T22:32:03.737Z,43.90
2019-03-03T22:34:33.689Z,44.44
2019-03-03T22:37:03.889Z,44.17
2019-03-03T22:39:34.073Z,45.15
2019-03-03T22:42:04.000Z,44.42
2019-03-03T22:44:33.906Z,44.14
2019-03-03T22:47:04.405Z,44.75
2019-03-03T22:49:34.748Z,44.87
2019-03-03T22:52:04.870Z,45.50
2019-03-03T22:54:35.181Z,45.43
2019-03-03T22:57:05.293Z,44.71
2019-03-03T22:59:35.208Z,44.64
2019-03-03T23:02:05.396Z,44.79
2019-03-03T23:05:15.997Z,43.67
2019-03-03T23:08:12.699Z,43.29
2019-03-03T23:11:01.897Z,42.75
2019-03-03T23:13:47.205Z,42.98
2019-03-03T23:16:50.313Z,43.87
2019-03-03T23:19:51.195Z,45.08
2019-03-03T23:22:58.941Z,43.45
2019-03-03T23:25:58.001Z,44.77
2019-03-03T23:28:28.246Z,44.30
2019-03-03T23:30:59.017Z,44.51
2019-03-03T23:33:29.138Z,46.78
2019-03-03T23:35:59.316Z,45.14
2019-03-03T23:38:29.322Z,44.50
2019-03-03T23:41:00.144Z,43.69
2019-03-03T23:43:30.327Z,43.72
2019-03-03T23:46:00.551Z,43.97
2019-03-03T23:48:30.562Z,43.57
2019-03-03T23:51:00.747Z,43.37
2019-03-03T23:53:30.994Z,43.46
2019-03-03T23:56:00.892Z,43.63
2019-03-03T23:58:30.902Z,43.49
